Date,TemperatureHighF,TemperatureAvgF,TemperatureLowF,DewpointHighF,DewpointAvgF,DewpointLowF,HumidityHigh,HumidityAvg,HumidityLow,PressureMaxIn,PressureMinIn,WindSpeedMaxMPH,WindSpeedAvgMPH,GustSpeedMaxMPH,PrecipitationSumIn
2013-9-1,56.0,55.6,55.0,54.0,52.7,52.0,93,91,91,29.84,29.72,2,0,8,0.05
2013-9-2,55.0,55.0,55.0,54.0,52.5,52.0,95,92,91,29.72,29.52,2,0,5,0.43
2013-9-3,59.0,55.6,55.0,54.0,52.7,52.0,94,91,81,29.52,29.28,2,0,8,0.25
2013-9-4,56.0,55.2,53.0,52.0,50.9,48.0,89,85,80,29.79,29.41,6,1,16,0.39
2013-9-5,56.0,53.1,51.0,52.0,48.5,48.0,92,84,81,30.01,29.79,1,0,3,0.02
2013-9-6,52.0,50.5,49.0,50.0,48.3,47.0,96,92,87,29.99,29.39,10,4,25,0.99
2013-9-7,57.0,52.0,50.0,54.0,49.2,-99.9,98,94,88,29.63,29.42,5,1,17,1.18
2013-9-8,58.0,52.9,49.0,52.0,50.0,47.0,98,90,78,29.83,29.48,7,2,22,0.07
2013-9-9,60.0,53.8,50.0,52.0,49.3,47.0,96,85,67,29.83,29.59,6,2,17,0.31
2013-9-10,59.0,54.0,52.0,56.0,52.7,51.0,98,96,89,29.74,29.66,3,1,8,1.32
2013-9-11,58.0,52.9,48.0,55.0,50.9,46.0,98,93,85,29.89,29.61,5,2,14,0.57
2013-9-12,58.0,50.2,41.0,50.0,46.1,40.0,98,87,66,29.98,29.89,4,1,8,0.12
2013-9-13,60.0,53.4,49.0,53.0,49.9,47.0,96,88,75,29.93,29.85,8,3,18,0.19
2013-9-14,64.0,54.8,46.0,51.0,46.5,-99.9,95,78,53,29.93,29.85,6,2,13,0.03
2013-9-15,58.0,51.1,42.0,51.0,46.8,40.0,96,86,72,29.88,29.72,2,0,6,0.01
2013-9-16,56.0,46.3,33.0,50.0,43.2,32.0,99,89,73,29.72,29.49,3,0,7,0.02
2013-9-17,55.0,47.1,40.0,49.0,44.6,38.0,97,91,79,29.53,29.46,2,0,6,0.06
2013-9-18,49.0,44.5,42.0,46.0,42.8,40.0,97,94,88,29.61,29.53,1,0,3,0.16
2013-9-19,51.0,43.9,36.0,42.0,37.6,31.0,96,80,48,29.59,29.43,5,1,12,0.20
2013-9-20,47.0,37.0,27.0,37.0,28.7,24.0,96,75,41,29.43,29.03,3,1,10,0.01
2013-9-21,45.0,39.4,30.0,40.0,33.3,-99.9,94,82,66,29.04,28.96,5,2,15,0.13
2013-9-22,49.0,43.4,38.0,39.0,28.7,22.0,94,57,39,29.31,28.96,6,2,20,0.08
2013-9-23,49.0,42.0,29.0,31.0,24.7,21.0,89,52,36,29.75,29.31,6,2,18,0.00
2013-9-24,44.0,36.0,27.0,38.0,29.9,25.0,93,79,57,29.96,29.76,4,1,10,0.15
2013-9-25,50.0,45.0,40.0,48.0,43.7,38.0,97,95,91,29.83,29.44,3,1,10,2.01
2013-9-26,49.0,46.4,44.0,47.0,45.0,43.0,97,95,90,29.62,29.19,3,1,12,0.31
2013-9-27,53.0,47.7,43.0,45.0,43.4,40.0,97,86,68,29.20,28.93,13,3,23,0.30
2013-9-28,53.0,44.7,37.0,48.0,38.8,-99.9,98,83,61,29.16,29.09,4,1,10,0.01
2013-9-29,50.0,46.8,41.0,39.0,35.8,33.0,81,66,57,29.38,29.16,8,3,16,0.00
2013-9-30,51.0,44.8,34.0,38.0,34.7,31.0,92,69,56,29.59,29.38,7,2,12,0.00